This is the latest recevied weather packets stored in our database for station/object W5SDC. If no packets are shown the sender has not sent any weather packets the latest 10 day(s).
| Time | Temp. | Humidity | Pressure | Rain* | Wind** | Luminosity | Snow |
|---|---|---|---|---|---|---|---|
| 1777763124 | 25° C | 45% | 1020.6 hPa | 0 mm | - | - | - |
| 1777761932 | 23.89° C | 46% | 1020.6 hPa | 0 mm | - | - | - |
| 1777761015 | 23.89° C | 45% | 1020.8 hPa | 0 mm | - | - | - |
| 1777760117 | 23.33° C | 46% | 1020.9 hPa | 0 mm | - | - | - |
| 1777758631 | 23.33° C | 45% | 1021 hPa | 0 mm | - | - | - |
| 1777756523 | 23.89° C | 43% | 1021.5 hPa | 0 mm | - | - | - |
| 1777755331 | 23.89° C | 43% | 1021.8 hPa | 0 mm | - | - | - |
| 1777752030 | 23.33° C | 45% | 1022.2 hPa | 0 mm | - | - | - |
| 1777748730 | 23.33° C | 52% | 1022.2 hPa | 0 mm | - | - | - |
| 1777748418 | 22.22° C | 53% | 1022.4 hPa | 0 mm | - | - | - |
| 1777746621 | 22.22° C | 54% | 1022.7 hPa | 0 mm | - | - | - |
| 1777746016 | 22.22° C | 55% | 1023 hPa | 0 mm | - | - | - |
| 1777743925 | 21.67° C | 59% | 1023.7 hPa | 0 mm | - | - | - |
| 1777743320 | 21.11° C | 61% | 1023.9 hPa | 0 mm | - | - | - |
| 1777741816 | 20° C | 62% | 1023.9 hPa | 0 mm | - | - | - |
| 1777741543 | 20.56° C | 61% | 1023.9 hPa | 0 mm | - | - | - |
| 1777739433 | 19.44° C | 62% | 1024.1 hPa | 0 mm | - | - | - |
| 1777737930 | 18.89° C | 62% | 1024.1 hPa | 0 mm | - | - | - |
| 1777734337 | 18.33° C | 69% | 1023.9 hPa | 0 mm | - | - | - |
| 1777733730 | 17.22° C | 71% | 1023.9 hPa | 0 mm | - | - | - |
| 1777731915 | 15.56° C | 76% | 1023.6 hPa | 0 mm | - | - | - |
| 1777730723 | 15.56° C | 80% | 1023.5 hPa | 0 mm | - | - | - |
| 1777728321 | 13.89° C | 85% | 1022.9 hPa | 0 mm | - | - | - |
| 1777726524 | 12.22° C | 91% | 1022.7 hPa | 0 mm | - | - | - |
| 1777726231 | 11.67° C | 93% | 1022.6 hPa | 0 mm | - | - | - |
* Rain latest hour (hover to see other rain measurements)
** Current wind speed in m/s (hover to see current wind gust speed)